»·PEaware :: ASA183 KSAN-KSEA

ASA183 :: KSAN-KSEA

FLIGHT INFORMATION

Flight Status: Arrived
Operator:
Alaska Airlines
More flights by this operator :: More flights under this callsign
Pilot: Michael F. (26726)
Aircraft: BOEING 737-800
(B738)
More flights by this aircraft type
Origin: KSAN San Diego Intl-Lindbergh
United States
Destination: KSEA Seattle-Tacoma Intl
United States
More flights between these airports :: More routes between these airports
Route: PADRZ2 EHF J5 LKV HAWKZ7
File this flight plan on PilotEdge
Remarks: RMK / SIMBRIEF
Altitude:
(Current/Filed)
36,000ft
Speed:
(Current/Filed)
464kts
Departed: 13-Feb-20 02:05 PM
Arrived: 13-Feb-20 04:28 PM
Distance/Time
Traveled:
913nm/2:23
Distance/Time
To Go:
Arrived

Flight Plot

Page will automatically refresh every two minutes.

Flight plan parsing failed; only flown route is shown


Map Options




Map Legend


Flown Route
Filed Route
Departure Airport
Arrival Airport
Navaid (VOR, NDB)
Fix

Horizontal Profiles

Position Reports

Time Latitude Longitude Heading Altitude Ground
Speed
13-Feb-20 13:41 32.733737 -117.198987 149 23ft 0kts
13-Feb-20 13:42 32.733737 -117.198987 149 23ft 0kts
13-Feb-20 13:43 32.733737 -117.198987 149 23ft 0kts
13-Feb-20 13:44 32.733737 -117.198987 149 23ft 0kts
13-Feb-20 13:45 32.733737 -117.198987 149 23ft 0kts
13-Feb-20 13:46 32.733737 -117.198987 149 23ft 0kts
13-Feb-20 13:47 32.733737 -117.198987 149 23ft 0kts
13-Feb-20 13:48 32.733737 -117.198987 149 23ft 0kts
13-Feb-20 13:49 32.733872 -117.199081 149 23ft 2kts
13-Feb-20 13:50 32.734111 -117.199714 55 23ft 1kts
13-Feb-20 13:51 32.734108 -117.199720 55 23ft 0kts
13-Feb-20 13:52 32.734108 -117.199720 55 23ft 0kts
13-Feb-20 13:53 32.734108 -117.199720 55 23ft 0kts
13-Feb-20 13:54 32.734108 -117.199720 55 23ft 0kts
13-Feb-20 13:55 32.734153 -117.199666 35 23ft 0kts
13-Feb-20 13:56 32.734154 -117.199665 35 23ft 0kts
13-Feb-20 13:57 32.734602 -117.198110 97 23ft 8kts
13-Feb-20 13:58 32.733820 -117.195020 108 23ft 11kts
13-Feb-20 13:59 32.733021 -117.191717 106 23ft 9kts
13-Feb-20 14:00 32.732247 -117.188522 106 23ft 15kts
13-Feb-20 14:01 32.731151 -117.183965 105 23ft 14kts
13-Feb-20 14:02 32.730100 -117.179650 104 23ft 12kts
13-Feb-20 14:03 32.729505 -117.176502 78 23ft 12kts
13-Feb-20 14:04 32.732408 -117.184780 287 23ft 117kts
13-Feb-20 14:05 32.750806 -117.230548 306 2410ft 174kts
13-Feb-20 14:06 32.783933 -117.292057 305 4118ft 260kts
13-Feb-20 14:07 32.829633 -117.364847 306 7258ft 282kts
13-Feb-20 14:08 32.878498 -117.440695 306 10469ft 294kts
13-Feb-20 14:09 32.932656 -117.524956 307 12114ft 355kts
13-Feb-20 14:10 32.997075 -117.625244 307 13866ft 395kts
13-Feb-20 14:11 33.066292 -117.730189 313 16254ft 408kts
13-Feb-20 14:12 33.153120 -117.820390 319 18396ft 420kts
13-Feb-20 14:13 33.244311 -117.911515 321 20316ft 433kts
13-Feb-20 14:14 33.338956 -118.003564 321 22010ft 444kts
13-Feb-20 14:15 33.435915 -118.098279 320 23520ft 455kts
13-Feb-20 14:16 33.534718 -118.195566 320 24843ft 465kts
13-Feb-20 14:17 33.628049 -118.265619 334 25888ft 473kts
13-Feb-20 14:18 33.733779 -118.323151 334 27102ft 475kts
13-Feb-20 14:19 33.837725 -118.376947 337 28386ft 473kts
13-Feb-20 14:20 33.957489 -118.437222 336 29837ft 471kts
13-Feb-20 14:21 34.084414 -118.473864 352 31225ft 468kts
13-Feb-20 14:22 34.213181 -118.492501 351 32564ft 464kts
13-Feb-20 14:23 34.340470 -118.512007 351 33836ft 460kts
13-Feb-20 14:24 34.467155 -118.531495 351 34942ft 458kts
13-Feb-20 14:25 34.593461 -118.551058 350 35988ft 456kts
13-Feb-20 14:26 34.719691 -118.570651 350 36150ft 456kts
13-Feb-20 14:27 34.845633 -118.590280 350 36154ft 455kts
13-Feb-20 14:28 34.971197 -118.610429 346 36151ft 454kts
13-Feb-20 14:29 35.079680 -118.684790 319 36148ft 452kts
13-Feb-20 14:30 35.168505 -118.774654 319 36135ft 453kts
13-Feb-20 14:31 35.257157 -118.864489 319 36107ft 453kts
13-Feb-20 14:32 35.344239 -118.952845 319 36086ft 453kts
13-Feb-20 14:33 35.441083 -119.051994 319 36080ft 454kts
13-Feb-20 14:34 35.556539 -119.108608 351 36084ft 455kts
13-Feb-20 14:35 35.682552 -119.123637 352 36089ft 455kts
13-Feb-20 14:36 35.808857 -119.139884 352 36092ft 455kts
13-Feb-20 14:37 35.934502 -119.156384 352 36101ft 455kts
13-Feb-20 14:38 36.060497 -119.173099 352 36108ft 455kts
13-Feb-20 14:40 36.186699 -119.189888 352 36104ft 455kts
13-Feb-20 14:41 36.312447 -119.206697 352 36101ft 455kts
13-Feb-20 14:42 36.438521 -119.223578 352 36102ft 455kts
13-Feb-20 14:43 36.564721 -119.240494 352 36103ft 456kts
13-Feb-20 14:44 36.690664 -119.257495 353 36104ft 456kts
13-Feb-20 14:45 36.817045 -119.274610 353 36107ft 456kts
13-Feb-20 14:46 36.943190 -119.291833 353 36109ft 456kts
13-Feb-20 14:47 37.069322 -119.309049 353 36112ft 457kts
13-Feb-20 14:48 37.195614 -119.326258 353 36116ft 456kts
13-Feb-20 14:49 37.322031 -119.343542 353 36126ft 457kts
13-Feb-20 14:50 37.448610 -119.360937 353 36127ft 457kts
13-Feb-20 14:51 37.575375 -119.378417 353 36130ft 457kts
13-Feb-20 14:52 37.701899 -119.395868 353 36135ft 458kts
13-Feb-20 14:53 37.828330 -119.413437 353 36134ft 458kts
13-Feb-20 14:54 37.955269 -119.431166 353 36133ft 458kts
13-Feb-20 14:55 38.081798 -119.449000 353 36125ft 458kts
13-Feb-20 14:56 38.208583 -119.466938 353 36118ft 458kts
13-Feb-20 14:56 38.314117 -119.481939 353 36113ft 458kts
13-Feb-20 14:58 38.462006 -119.502681 353 36105ft 458kts
13-Feb-20 14:59 38.588924 -119.520532 353 36098ft 458kts
13-Feb-20 14:59 38.694446 -119.535547 353 36092ft 458kts
13-Feb-20 15:00 38.820814 -119.553647 353 36086ft 458kts
13-Feb-20 15:02 38.968477 -119.574834 353 36087ft 458kts
13-Feb-20 15:02 39.074135 -119.589932 353 36077ft 457kts
13-Feb-20 15:03 39.200567 -119.608120 353 36072ft 457kts
13-Feb-20 15:04 39.326969 -119.626354 353 36077ft 458kts
13-Feb-20 15:05 39.453756 -119.644774 353 36087ft 458kts
13-Feb-20 15:06 39.579882 -119.668475 347 36078ft 459kts
13-Feb-20 15:07 39.704890 -119.703861 348 36072ft 459kts
13-Feb-20 15:08 39.829718 -119.738457 348 36073ft 460kts
13-Feb-20 15:09 39.955069 -119.773315 348 36078ft 460kts
13-Feb-20 15:10 40.080132 -119.808201 348 36087ft 460kts
13-Feb-20 15:11 40.205088 -119.843164 348 36083ft 460kts
13-Feb-20 15:12 40.330552 -119.878147 348 36083ft 459kts
13-Feb-20 15:13 40.455154 -119.913154 347 36074ft 459kts
13-Feb-20 15:14 40.580342 -119.948367 347 36073ft 459kts
13-Feb-20 15:15 40.705184 -119.983776 347 36071ft 458kts
13-Feb-20 15:16 40.829603 -120.019215 347 36069ft 460kts
13-Feb-20 15:17 40.954577 -120.055091 347 36063ft 459kts
13-Feb-20 15:18 41.079544 -120.091256 347 36058ft 459kts
13-Feb-20 15:19 41.204354 -120.127456 346 36054ft 459kts
13-Feb-20 15:20 41.328928 -120.163620 346 36052ft 458kts
13-Feb-20 15:21 41.453442 -120.199877 346 36051ft 458kts
13-Feb-20 15:22 41.577854 -120.235972 346 36048ft 458kts
13-Feb-20 15:23 41.702749 -120.272467 346 36046ft 458kts
13-Feb-20 15:24 41.827086 -120.308981 346 36044ft 457kts
13-Feb-20 15:25 41.951168 -120.345569 346 36041ft 457kts
13-Feb-20 15:26 42.075503 -120.382368 346 36040ft 458kts
13-Feb-20 15:27 42.199898 -120.419252 346 36040ft 458kts
13-Feb-20 15:28 42.324787 -120.456502 346 36039ft 458kts
13-Feb-20 15:29 42.448879 -120.493757 346 36038ft 458kts
13-Feb-20 15:30 42.568518 -120.552903 334 36037ft 457kts
13-Feb-20 15:31 42.684546 -120.623316 334 36032ft 457kts
13-Feb-20 15:32 42.800724 -120.694235 333 36029ft 457kts
13-Feb-20 15:33 42.916891 -120.764732 333 36027ft 457kts
13-Feb-20 15:34 43.032800 -120.835751 333 36025ft 457kts
13-Feb-20 15:35 43.148647 -120.907086 333 36023ft 457kts
13-Feb-20 15:36 43.264739 -120.978901 333 36022ft 457kts
13-Feb-20 15:37 43.380638 -121.050879 332 36021ft 457kts
13-Feb-20 15:38 43.496267 -121.122970 332 36021ft 457kts
13-Feb-20 15:39 43.612031 -121.195285 332 36007ft 457kts
13-Feb-20 15:40 43.727883 -121.268320 332 36004ft 457kts
13-Feb-20 15:41 43.843814 -121.341813 332 36014ft 462kts
13-Feb-20 15:42 43.960837 -121.416305 331 36014ft 461kts
13-Feb-20 15:43 44.076633 -121.490281 331 35995ft 457kts
13-Feb-20 15:44 44.192315 -121.563898 331 35989ft 457kts
13-Feb-20 15:45 44.308010 -121.638111 331 36013ft 457kts
13-Feb-20 15:46 44.423779 -121.712816 330 36025ft 458kts
13-Feb-20 15:47 44.539104 -121.787583 330 36003ft 458kts
13-Feb-20 15:48 44.654861 -121.862938 330 36021ft 458kts
13-Feb-20 15:49 44.770393 -121.938516 330 36041ft 458kts
13-Feb-20 15:50 44.885657 -122.014192 330 36058ft 458kts
13-Feb-20 15:51 45.001455 -122.090588 330 36076ft 459kts
13-Feb-20 15:52 45.116967 -122.166919 329 36089ft 458kts
13-Feb-20 15:53 45.232564 -122.244078 329 36099ft 458kts
13-Feb-20 15:54 45.347864 -122.321292 329 36111ft 459kts
13-Feb-20 15:55 45.458461 -122.395715 329 36117ft 459kts
13-Feb-20 15:56 45.573972 -122.473253 328 36119ft 459kts
13-Feb-20 15:57 45.645478 -122.521836 328 36118ft 459kts
13-Feb-20 15:58 45.763151 -122.593957 337 35893ft 468kts
13-Feb-20 15:59 45.893228 -122.627595 344 33219ft 478kts
13-Feb-20 16:00 46.025369 -122.660227 344 30121ft 485kts
13-Feb-20 16:01 46.159924 -122.690970 347 26776ft 495kts
13-Feb-20 16:02 46.295156 -122.717215 346 23816ft 481kts
13-Feb-20 16:03 46.427001 -122.726835 353 21143ft 467kts
13-Feb-20 16:04 46.554102 -122.730629 352 18506ft 446kts
13-Feb-20 16:05 46.675512 -122.735001 352 16271ft 418kts
13-Feb-20 16:06 46.782728 -122.730440 11 15986ft 374kts
13-Feb-20 16:07 46.868112 -122.640563 34 14425ft 378kts
13-Feb-20 16:08 46.951119 -122.557266 16 13563ft 340kts
13-Feb-20 16:09 47.039445 -122.517706 10 12279ft 327kts
13-Feb-20 16:10 47.126579 -122.491446 1 11021ft 313kts
13-Feb-20 16:11 47.202723 -122.477714 2 10052ft 300kts
13-Feb-20 16:12 47.281968 -122.466080 1 8912ft 283kts
13-Feb-20 16:13 47.347296 -122.456085 2 8170ft 260kts
13-Feb-20 16:14 47.417720 -122.455686 354 7154ft 249kts
13-Feb-20 16:15 47.486729 -122.455411 356 6125ft 241kts
13-Feb-20 16:16 47.550830 -122.454253 357 6022ft 225kts
13-Feb-20 16:17 47.613714 -122.452092 357 6026ft 227kts
13-Feb-20 16:18 47.669598 -122.450101 357 6024ft 227kts
13-Feb-20 16:19 47.732796 -122.444946 18 6000ft 237kts
13-Feb-20 16:20 47.751598 -122.353239 96 6049ft 256kts
13-Feb-20 16:21 47.709082 -122.295086 192 5580ft 218kts
13-Feb-20 16:22 47.651667 -122.313295 190 4517ft 214kts
13-Feb-20 16:23 47.590933 -122.316081 185 3124ft 214kts
13-Feb-20 16:24 47.535720 -122.317667 185 2010ft 183kts
13-Feb-20 16:25 47.489856 -122.317722 184 1084ft 150kts
13-Feb-20 16:26 47.449598 -122.318042 180 441ft 68kts
13-Feb-20 16:27 47.443400 -122.315404 148 441ft 4kts
13-Feb-20 16:28 47.440969 -122.310475 148 441ft 15kts
13-Feb-20 16:29 47.439263 -122.306574 38 441ft 12kts
13-Feb-20 16:30 47.442055 -122.305401 355 441ft 10kts
13-Feb-20 16:31 47.445484 -122.305402 1 441ft 16kts
13-Feb-20 16:32 47.447825 -122.304131 94 441ft 7kts
13-Feb-20 16:33 47.448134 -122.303116 38 441ft 0kts
13-Feb-20 16:34 47.448134 -122.303116 38 441ft 0kts
13-Feb-20 16:35 47.448134 -122.303116 38 441ft 0kts
13-Feb-20 16:36 47.448134 -122.303116 38 441ft 0kts
13-Feb-20 16:37 47.448134 -122.303116 38 441ft 0kts
13-Feb-20 16:38 47.448134 -122.303116 38 441ft 0kts
13-Feb-20 16:39 47.448134 -122.303116 38 441ft 0kts
13-Feb-20 16:40 47.448134 -122.303116 38 441ft 0kts
13-Feb-20 16:41 47.448134 -122.303116 38 441ft 0kts

Navigation Log

Ident Type
Flight plan parsing failed, navigation log unavailable